Strona główna
METAR-TAF:

METAR-TAF

Lotnisko :

Chautauqua County/Dunkirk Airport

Dunkirk, Nowy Jork, Stany Zjednoczone

Szerokość geograficzna: 42-29-35N, Długość geograficzna: 079-16-33W, wysokość: 211 m

Aktualna obserwacja pogody

Raport powstał 39 minut temu, godzina 08:18 UTC
Wiatr 14 kt od zachód w porywach dochodzący do 23 kt
Temperatura 3°C
Wilgotność 70%
Ciśnienie 1003 hPa
Widzialność: 14.5 km
Mało chmury na wysokości 1700 ft
Przerywane chmury na wysokości 3200 ft
Zachmurzenie całkowite na wysokości 4300 ft

METAR: KDKK 150818Z AUTO 27014G23KT 9SM FEW017 BKN032 OVC043 03/M02 A2963 RMK AO2 T00281017

czas: 03:57 (08:57 UTC)


TAF: brakujący

Obserwacja i prognoza pogody dla ponad 4000 lotnisk (raport METAR i TAF).

Dostępne stacje oznaczono żółtymi i czerwonymi punktami na mapie.

Najedź kursorem aby zobaczyć nazwę stacji.

Kliknij aby zobaczyć obserwacje i prognozy pogody.

Aby zmienić mapę: kliknij na zielony przycisk z czarnym krzyżykiem, aby powiększyć; na zielony przycisk z myślnikiem, aby pomniejszyć; na zielone strzałki, aby przejść do map sąsiednich.


METAR-TAF: